createdAt,value
2019-03-04T00:01:47.120Z,10.10
2019-03-04T00:04:15.566Z,10.10
2019-03-04T00:06:44.012Z,10.20
2019-03-04T00:09:12.508Z,10.20
2019-03-04T00:11:40.931Z,10.20
2019-03-04T00:14:09.380Z,10.20
2019-03-04T00:16:37.810Z,10.30
2019-03-04T00:19:06.359Z,10.30
2019-03-04T00:21:34.765Z,10.40
2019-03-04T00:24:03.209Z,10.40
2019-03-04T00:26:31.659Z,10.20
2019-03-04T00:29:00.128Z,10.30
2019-03-04T00:31:28.565Z,10.30
2019-03-04T00:33:56.996Z,10.30
2019-03-04T00:36:25.414Z,10.30
2019-03-04T00:38:54.028Z,10.20
2019-03-04T00:41:22.459Z,10.00
2019-03-04T00:43:51.023Z,9.80
2019-03-04T00:46:19.450Z,9.90
2019-03-04T00:48:47.904Z,9.90
2019-03-04T00:51:16.340Z,9.90
2019-03-04T00:53:44.801Z,9.90
2019-03-04T00:56:13.310Z,10.00
2019-03-04T00:58:41.832Z,10.00
2019-03-04T01:01:29.652Z,9.80
2019-03-04T01:04:17.450Z,9.90
2019-03-04T01:07:05.445Z,9.70
2019-03-04T01:09:53.206Z,9.70
2019-03-04T01:12:40.971Z,9.60
2019-03-04T01:15:28.740Z,9.50
2019-03-04T01:18:16.500Z,9.50
2019-03-04T01:21:04.282Z,9.60
2019-03-04T01:23:52.039Z,9.60
2019-03-04T01:26:40.054Z,9.70
2019-03-04T01:29:27.803Z,9.80
2019-03-04T01:32:15.572Z,9.80
2019-03-04T01:35:03.510Z,10.00
2019-03-04T01:37:51.323Z,10.00
2019-03-04T01:40:39.081Z,10.10
2019-03-04T01:43:07.498Z,10.00
2019-03-04T01:45:55.287Z,10.00
2019-03-04T01:48:43.055Z,10.10
2019-03-04T01:51:30.821Z,10.20
2019-03-04T01:54:11.466Z,10.30
2019-03-04T01:56:52.366Z,10.30
2019-03-04T01:59:33.254Z,10.30
2019-03-04T02:02:13.987Z,10.20
2019-03-04T02:04:54.914Z,10.20
2019-03-04T02:07:35.851Z,10.00
2019-03-04T02:13:29.710Z,10.00
2019-03-04T02:16:10.945Z,10.00
2019-03-04T02:18:51.736Z,9.90
2019-03-04T02:24:33.321Z,9.70
2019-03-04T02:27:21.086Z,9.70
2019-03-04T02:30:28.164Z,9.70
2019-03-04T02:33:15.944Z,9.80
2019-03-04T02:35:44.368Z,9.80
2019-03-04T02:38:32.144Z,9.60
2019-03-04T02:41:19.980Z,9.60
2019-03-04T02:44:07.752Z,9.60
2019-03-04T02:46:55.532Z,9.60
2019-03-04T02:49:43.278Z,9.70
2019-03-04T02:52:23.867Z,9.70
2019-03-04T02:55:04.682Z,9.70
2019-03-04T02:57:45.360Z,9.90
2019-03-04T03:00:26.052Z,10.00
2019-03-04T03:03:06.388Z,10.10
2019-03-04T03:05:47.544Z,10.30
2019-03-04T03:08:28.211Z,10.40
2019-03-04T03:11:08.782Z,10.40
2019-03-04T03:13:49.209Z,10.40
2019-03-04T03:16:29.807Z,10.40
2019-03-04T03:19:10.715Z,10.50
2019-03-04T03:21:51.107Z,10.50
2019-03-04T03:24:32.084Z,10.40
2019-03-04T03:27:13.103Z,10.30
2019-03-04T03:29:53.891Z,10.20
2019-03-04T03:32:34.845Z,10.10
2019-03-04T03:35:15.457Z,10.00
2019-03-04T03:37:56.398Z,10.00
2019-03-04T03:40:37.061Z,9.90
2019-03-04T03:43:17.745Z,9.90
2019-03-04T03:45:58.832Z,9.70
2019-03-04T03:48:39.705Z,9.60
2019-03-04T03:51:20.465Z,9.60
2019-03-04T03:54:01.170Z,9.60
2019-03-04T03:56:42.094Z,9.60
2019-03-04T03:59:22.902Z,9.60
2019-03-04T04:02:03.655Z,9.60
2019-03-04T04:04:44.439Z,9.60
2019-03-04T04:07:25.121Z,9.70
2019-03-04T04:10:05.635Z,9.70
2019-03-04T04:12:46.409Z,9.70
2019-03-04T04:15:27.403Z,9.70
2019-03-04T04:18:08.267Z,9.80
2019-03-04T04:20:49.347Z,9.50
2019-03-04T04:23:30.281Z,9.50
2019-03-04T04:26:30.349Z,9.40
2019-03-04T04:29:11.271Z,9.60
2019-03-04T04:31:51.703Z,9.50
2019-03-04T04:34:32.672Z,9.50
2019-03-04T04:37:13.427Z,9.40
2019-03-04T04:39:53.976Z,9.40
2019-03-04T04:42:22.385Z,9.40
2019-03-04T04:45:10.518Z,9.40
2019-03-04T04:47:58.289Z,9.50
2019-03-04T04:50:46.062Z,9.60
2019-03-04T04:53:26.372Z,9.50
2019-03-04T04:56:07.059Z,9.60
2019-03-04T04:58:47.690Z,9.60
2019-03-04T05:01:28.770Z,9.60
2019-03-04T05:04:09.878Z,9.60
2019-03-04T05:06:50.829Z,9.60
2019-03-04T05:09:31.744Z,9.60
2019-03-04T05:12:12.740Z,9.50
2019-03-04T05:14:53.704Z,9.40
2019-03-04T05:17:34.680Z,9.40
2019-03-04T05:20:15.562Z,9.40
2019-03-04T05:22:56.196Z,9.40
2019-03-04T05:25:37.034Z,9.40
2019-03-04T05:28:17.254Z,9.40
2019-03-04T05:30:58.247Z,9.40
2019-03-04T05:33:38.988Z,9.50
2019-03-04T05:36:19.585Z,9.40
2019-03-04T05:39:00.563Z,9.50
2019-03-04T05:41:41.516Z,9.60
2019-03-04T05:44:22.124Z,9.60
2019-03-04T05:47:03.103Z,9.70
2019-03-04T05:49:43.799Z,9.60
2019-03-04T05:52:24.612Z,9.70
2019-03-04T05:55:05.563Z,9.60
2019-03-04T05:57:46.459Z,9.80
2019-03-04T06:00:28.754Z,9.90
2019-03-04T06:03:09.916Z,9.90
2019-03-04T06:05:50.711Z,9.90
2019-03-04T06:08:31.141Z,9.70
2019-03-04T06:11:12.224Z,9.40
2019-03-04T06:13:53.184Z,9.40
2019-03-04T06:16:34.207Z,9.50
2019-03-04T06:19:14.676Z,9.20
2019-03-04T06:21:55.709Z,9.00
2019-03-04T06:24:35.980Z,9.00
2019-03-04T06:27:16.502Z,9.10
2019-03-04T06:29:44.951Z,9.20
2019-03-04T06:32:32.832Z,9.40
2019-03-04T06:35:20.646Z,9.30
2019-03-04T06:38:08.411Z,9.30
2019-03-04T06:40:56.170Z,9.10
2019-03-04T06:43:44.158Z,9.10
2019-03-04T06:46:33.445Z,9.00
2019-03-04T06:49:21.211Z,9.10
2019-03-04T06:52:08.987Z,9.20
2019-03-04T06:54:50.075Z,9.30
2019-03-04T06:57:30.847Z,9.30
2019-03-04T07:00:11.814Z,9.30
2019-03-04T07:02:52.833Z,9.40
2019-03-04T07:05:33.547Z,9.30
2019-03-04T07:08:14.516Z,9.40
2019-03-04T07:10:55.298Z,9.50
2019-03-04T07:13:36.240Z,9.80
2019-03-04T07:16:17.211Z,9.70
2019-03-04T07:18:57.934Z,9.60
2019-03-04T07:21:39.072Z,9.50
2019-03-04T07:24:20.201Z,9.50
2019-03-04T07:27:01.087Z,9.50
2019-03-04T07:29:42.210Z,9.60
2019-03-04T07:32:23.154Z,9.60
2019-03-04T07:35:03.962Z,9.60
2019-03-04T07:37:44.367Z,9.70
2019-03-04T07:40:24.939Z,9.70
2019-03-04T07:43:05.852Z,9.70
2019-03-04T07:45:46.317Z,9.70
2019-03-04T07:48:27.000Z,9.60
2019-03-04T07:51:08.124Z,9.60
2019-03-04T07:53:49.168Z,9.60
2019-03-04T07:56:30.203Z,9.60
2019-03-04T07:59:11.213Z,9.70
2019-03-04T08:01:51.918Z,9.70
2019-03-04T08:04:32.767Z,9.80
2019-03-04T08:07:13.712Z,10.00
2019-03-04T08:09:54.213Z,10.10
2019-03-04T08:12:35.142Z,10.30
2019-03-04T08:15:16.150Z,10.50
2019-03-04T08:17:57.266Z,10.80
2019-03-04T08:20:37.960Z,11.20
2019-03-04T08:23:18.965Z,11.40
2019-03-04T08:25:59.858Z,11.50
2019-03-04T08:28:40.843Z,11.40
2019-03-04T08:31:21.731Z,11.60
2019-03-04T08:34:02.001Z,11.50
2019-03-04T08:36:43.118Z,11.60
2019-03-04T08:39:23.758Z,11.70
2019-03-04T08:42:04.487Z,11.70
2019-03-04T08:44:45.173Z,12.00
2019-03-04T08:47:26.011Z,12.10
2019-03-04T08:50:06.705Z,12.30
2019-03-04T08:52:47.662Z,12.50
2019-03-04T08:55:28.628Z,12.60
2019-03-04T08:58:09.426Z,12.70
2019-03-04T09:00:50.616Z,12.50
2019-03-04T09:03:31.508Z,12.40
2019-03-04T09:06:12.360Z,12.40
2019-03-04T09:08:53.341Z,12.40
2019-03-04T09:11:21.763Z,12.40
2019-03-04T09:14:09.531Z,12.40
2019-03-04T09:16:57.322Z,12.40
2019-03-04T09:19:45.078Z,12.40
2019-03-04T09:22:32.862Z,12.40
2019-03-04T09:25:39.965Z,12.50
2019-03-04T09:28:27.751Z,12.70
2019-03-04T09:31:15.514Z,12.60
2019-03-04T09:34:03.281Z,12.60
2019-03-04T09:36:51.057Z,12.60
2019-03-04T09:39:39.096Z,12.50
2019-03-04T09:45:38.732Z,12.70
2019-03-04T09:48:24.874Z,12.90
2019-03-04T09:51:12.638Z,13.00
2019-03-04T09:53:53.304Z,13.00
2019-03-04T09:56:33.851Z,12.90
2019-03-04T09:59:14.456Z,12.80
2019-03-04T10:01:54.996Z,12.70
2019-03-04T10:04:36.143Z,12.70
2019-03-04T10:07:16.908Z,12.40
2019-03-04T10:09:57.902Z,12.40
2019-03-04T10:12:38.458Z,12.40
2019-03-04T10:15:20.437Z,12.10
2019-03-04T10:18:00.911Z,11.90
2019-03-04T10:20:41.739Z,11.90
2019-03-04T10:23:22.483Z,11.90
2019-03-04T10:26:29.584Z,12.00
2019-03-04T10:29:36.775Z,12.00
2019-03-04T10:32:43.884Z,12.00
2019-03-04T10:35:52.401Z,12.10
2019-03-04T10:38:59.511Z,12.10
2019-03-04T10:42:06.619Z,12.20
2019-03-04T10:45:13.723Z,12.30
2019-03-04T10:48:01.625Z,12.30
2019-03-04T10:50:49.470Z,12.20
2019-03-04T10:53:29.804Z,12.30
2019-03-04T10:56:10.789Z,12.20
2019-03-04T10:58:51.803Z,12.20
2019-03-04T11:01:29.942Z,12.20
2019-03-04T11:04:09.729Z,12.10
2019-03-04T11:06:57.503Z,12.10
2019-03-04T11:09:25.933Z,12.00
2019-03-04T11:12:14.186Z,12.00
2019-03-04T11:15:03.682Z,12.00
2019-03-04T11:17:51.481Z,12.00
2019-03-04T11:20:39.260Z,12.00
2019-03-04T11:26:35.563Z,11.90
2019-03-04T11:29:23.383Z,11.80
2019-03-04T11:32:11.210Z,11.70
2019-03-04T11:34:59.014Z,11.70
2019-03-04T11:37:46.862Z,11.70
2019-03-04T11:43:29.732Z,11.60
2019-03-04T11:49:12.343Z,11.50
2019-03-04T11:51:40.773Z,11.70
2019-03-04T11:54:21.558Z,11.90
2019-03-04T11:57:02.327Z,11.90
2019-03-04T11:59:30.755Z,11.80
2019-03-04T12:05:13.627Z,11.90
2019-03-04T12:08:01.400Z,12.00
2019-03-04T12:10:49.328Z,12.00
2019-03-04T12:13:37.092Z,11.90
2019-03-04T12:16:24.868Z,12.00
2019-03-04T12:19:12.650Z,12.00
2019-03-04T12:22:00.510Z,12.00
2019-03-04T12:24:48.257Z,12.10
2019-03-04T12:27:36.055Z,12.00
2019-03-04T12:30:24.276Z,11.90
2019-03-04T12:33:12.060Z,11.80
2019-03-04T12:35:59.825Z,11.70
2019-03-04T12:38:47.618Z,11.60
2019-03-04T12:41:35.380Z,11.50
2019-03-04T12:44:23.237Z,11.40
2019-03-04T12:47:11.029Z,11.40
2019-03-04T12:49:58.769Z,11.30
2019-03-04T12:52:46.539Z,11.30
2019-03-04T12:55:27.400Z,11.30
2019-03-04T12:58:06.187Z,11.40
2019-03-04T13:00:53.957Z,11.50
2019-03-04T13:03:41.738Z,11.40
2019-03-04T13:06:29.566Z,11.50
2019-03-04T13:09:17.484Z,11.50
2019-03-04T13:15:33.081Z,11.70
2019-03-04T13:18:21.199Z,11.80
2019-03-04T13:21:09.034Z,12.40
2019-03-04T13:23:56.814Z,12.50
2019-03-04T13:26:44.575Z,12.80
2019-03-04T13:29:32.364Z,12.80
2019-03-04T13:32:20.128Z,12.60
2019-03-04T13:35:28.627Z,12.40
2019-03-04T13:38:16.408Z,12.30
2019-03-04T13:41:04.445Z,12.40
2019-03-04T13:43:52.294Z,12.40
2019-03-04T13:46:40.071Z,12.40
2019-03-04T13:49:27.887Z,12.20
2019-03-04T13:52:15.647Z,11.90
2019-03-04T13:54:56.855Z,11.40
2019-03-04T13:57:37.626Z,11.00
2019-03-04T14:00:18.515Z,10.80
2019-03-04T14:02:59.364Z,10.60
2019-03-04T14:05:40.352Z,10.60
2019-03-04T14:08:21.190Z,10.70
2019-03-04T14:11:01.828Z,10.70
2019-03-04T14:13:42.615Z,10.50
2019-03-04T14:16:23.581Z,10.50
2019-03-04T14:19:04.621Z,10.60
2019-03-04T14:21:45.482Z,10.50
2019-03-04T14:24:26.390Z,10.40
2019-03-04T14:27:07.466Z,10.40
2019-03-04T14:29:48.330Z,10.70
2019-03-04T14:32:29.160Z,10.70
2019-03-04T14:35:10.139Z,10.50
2019-03-04T14:37:51.041Z,10.60
2019-03-04T14:40:32.921Z,10.50
2019-03-04T14:43:01.449Z,10.40
2019-03-04T14:45:49.242Z,10.30
2019-03-04T14:48:37.463Z,10.10
2019-03-04T14:51:25.327Z,9.80
2019-03-04T14:54:06.179Z,9.60
2019-03-04T14:56:47.562Z,9.30
2019-03-04T14:59:28.276Z,9.20
2019-03-04T15:02:08.949Z,9.10
2019-03-04T15:04:51.767Z,9.10
2019-03-04T15:07:20.558Z,9.00
2019-03-04T15:10:09.304Z,9.10
2019-03-04T15:12:57.063Z,9.00
2019-03-04T15:15:44.836Z,9.00
2019-03-04T15:18:32.603Z,9.10
2019-03-04T15:21:20.643Z,9.20
2019-03-04T15:24:08.708Z,9.20
2019-03-04T15:26:56.777Z,9.20
2019-03-04T15:29:45.010Z,9.10
2019-03-04T15:32:33.324Z,9.00
2019-03-04T15:35:21.079Z,8.80
2019-03-04T15:38:08.854Z,8.80
2019-03-04T15:40:56.653Z,8.70
2019-03-04T15:43:44.399Z,8.70
2019-03-04T15:46:32.181Z,8.70
2019-03-04T15:49:19.942Z,8.60
2019-03-04T15:52:07.771Z,8.40
2019-03-04T15:54:48.214Z,8.50
2019-03-04T15:57:28.811Z,8.30
2019-03-04T16:00:09.556Z,8.30
2019-03-04T16:02:50.464Z,8.30
2019-03-04T16:05:31.170Z,8.20
2019-03-04T16:08:12.013Z,8.20
2019-03-04T16:10:53.075Z,8.30
2019-03-04T16:13:34.229Z,8.30
2019-03-04T16:16:15.051Z,8.20
2019-03-04T16:18:56.059Z,8.20
2019-03-04T16:21:36.759Z,8.20
2019-03-04T16:24:17.316Z,8.20
2019-03-04T16:26:58.396Z,8.10
2019-03-04T16:29:39.084Z,8.10
2019-03-04T16:32:19.918Z,8.00
2019-03-04T16:35:00.294Z,8.00
2019-03-04T16:37:40.639Z,7.80
2019-03-04T16:40:21.588Z,7.80
2019-03-04T16:43:02.616Z,7.70
2019-03-04T16:45:43.347Z,7.70
2019-03-04T16:48:24.363Z,7.60
2019-03-04T16:51:05.153Z,7.50
2019-03-04T16:53:45.972Z,7.40
2019-03-04T16:56:26.655Z,7.20
2019-03-04T16:59:07.678Z,7.20
2019-03-04T17:01:48.588Z,7.10
2019-03-04T17:04:29.687Z,7.20
2019-03-04T17:07:10.610Z,7.00
2019-03-04T17:09:51.650Z,7.10
2019-03-04T17:12:32.674Z,7.00
2019-03-04T17:15:13.169Z,7.00
2019-03-04T17:17:53.951Z,7.00
2019-03-04T17:20:34.731Z,7.00
2019-03-04T17:23:15.555Z,6.90
2019-03-04T17:25:54.373Z,7.00
2019-03-04T17:28:42.194Z,6.90
2019-03-04T17:31:29.953Z,6.90
2019-03-04T17:34:17.769Z,6.90
2019-03-04T17:37:05.599Z,6.80
2019-03-04T17:39:53.449Z,6.80
2019-03-04T17:42:41.204Z,6.70
2019-03-04T17:45:29.073Z,6.60
2019-03-04T17:48:16.818Z,6.50
2019-03-04T17:51:06.184Z,6.50
2019-03-04T17:53:47.452Z,6.30
2019-03-04T17:56:28.299Z,6.30
2019-03-04T17:59:09.046Z,6.10
2019-03-04T18:01:49.878Z,6.10
2019-03-04T18:04:30.936Z,6.10
2019-03-04T18:07:11.685Z,6.00
2019-03-04T18:09:52.543Z,6.10
2019-03-04T18:12:33.130Z,6.00
2019-03-04T18:15:14.220Z,5.90
2019-03-04T18:17:55.235Z,6.00
2019-03-04T18:20:35.964Z,5.90
2019-03-04T18:23:16.879Z,5.90
2019-03-04T18:25:57.875Z,5.90
2019-03-04T18:28:38.563Z,6.00
2019-03-04T18:31:19.386Z,5.90
2019-03-04T18:34:26.478Z,5.90
2019-03-04T18:37:33.586Z,5.90
2019-03-04T18:40:40.673Z,5.90
2019-03-04T18:43:49.146Z,5.90
2019-03-04T18:46:56.246Z,5.80
2019-03-04T18:49:44.007Z,5.70
2019-03-04T18:52:31.783Z,5.60
2019-03-04T18:55:12.556Z,5.70
2019-03-04T18:57:53.133Z,5.60
2019-03-04T19:00:34.138Z,5.70
2019-03-04T19:03:14.788Z,5.60
2019-03-04T19:05:55.837Z,5.60
2019-03-04T19:08:36.286Z,5.60
2019-03-04T19:11:17.147Z,5.60
2019-03-04T19:13:58.094Z,5.60
2019-03-04T19:16:38.637Z,5.60
2019-03-04T19:19:19.316Z,5.60
2019-03-04T19:21:59.922Z,5.50
2019-03-04T19:24:40.550Z,5.50
2019-03-04T19:27:21.421Z,5.50
2019-03-04T19:30:02.186Z,5.50
2019-03-04T19:32:42.898Z,5.50
2019-03-04T19:35:51.370Z,5.40
2019-03-04T19:38:19.834Z,5.40
2019-03-04T19:41:07.633Z,5.50
2019-03-04T19:43:55.397Z,5.40
2019-03-04T19:46:43.161Z,5.40
2019-03-04T19:49:30.926Z,5.30
2019-03-04T19:52:18.683Z,5.40
2019-03-04T19:54:59.058Z,5.50
2019-03-04T20:03:39.515Z,5.60
2019-03-04T20:06:08.087Z,5.40
2019-03-04T20:08:55.857Z,5.30
2019-03-04T20:11:43.624Z,5.30
2019-03-04T20:14:31.469Z,5.30
2019-03-04T20:17:19.211Z,5.30
2019-03-04T20:20:26.323Z,5.40
2019-03-04T20:23:14.166Z,5.40
2019-03-04T20:26:01.940Z,5.40
2019-03-04T20:28:49.963Z,5.40
2019-03-04T20:31:37.731Z,5.40
2019-03-04T20:34:25.490Z,5.30
2019-03-04T20:37:13.255Z,5.30
2019-03-04T20:40:03.251Z,5.20
2019-03-04T20:42:50.586Z,5.30
2019-03-04T20:48:17.573Z,5.20
2019-03-04T20:51:05.336Z,5.30
2019-03-04T20:53:33.765Z,5.20
2019-03-04T20:56:14.444Z,5.20
2019-03-04T20:58:55.522Z,5.20
2019-03-04T21:01:36.413Z,5.20
2019-03-04T21:04:17.018Z,5.10
2019-03-04T21:06:58.036Z,5.20
2019-03-04T21:09:38.884Z,5.20
2019-03-04T21:12:19.365Z,5.20
2019-03-04T21:15:00.350Z,5.20
2019-03-04T21:17:41.183Z,5.10
2019-03-04T21:20:21.962Z,5.10
2019-03-04T21:23:03.640Z,5.20
2019-03-04T21:25:44.587Z,5.20
2019-03-04T21:28:51.716Z,5.10
2019-03-04T21:31:58.826Z,5.10
2019-03-04T21:35:05.893Z,5.10
2019-03-04T21:40:15.610Z,5.10
2019-03-04T21:42:56.523Z,5.00
2019-03-04T21:45:37.602Z,5.10
2019-03-04T21:48:18.627Z,5.10
2019-03-04T21:50:59.658Z,5.10
2019-03-04T21:53:40.428Z,5.00
2019-03-04T21:56:21.428Z,5.10
2019-03-04T21:59:02.370Z,5.10
2019-03-04T22:01:43.265Z,5.10
2019-03-04T22:04:11.689Z,5.10
2019-03-04T22:06:59.481Z,5.20
2019-03-04T22:09:47.290Z,5.20
2019-03-04T22:12:35.147Z,5.30
2019-03-04T22:15:22.963Z,5.20
2019-03-04T22:18:12.920Z,5.40
2019-03-04T22:21:00.225Z,5.30
2019-03-04T22:23:47.999Z,5.30
2019-03-04T22:26:35.814Z,5.20
2019-03-04T22:29:23.586Z,5.30
2019-03-04T22:32:11.377Z,5.40
2019-03-04T22:34:59.199Z,5.40
2019-03-04T22:37:46.968Z,5.30
2019-03-04T22:40:34.822Z,5.30
2019-03-04T22:43:22.603Z,5.30
2019-03-04T22:46:10.455Z,5.40
2019-03-04T22:48:58.232Z,5.30
2019-03-04T22:51:45.990Z,5.50
2019-03-04T22:54:27.087Z,5.50
2019-03-04T22:57:05.822Z,5.60
2019-03-04T22:59:53.587Z,5.50
2019-03-04T23:02:41.380Z,5.40
2019-03-04T23:05:29.211Z,5.30
2019-03-04T23:08:17.032Z,5.30
2019-03-04T23:11:04.807Z,5.20
2019-03-04T23:14:11.911Z,5.30
2019-03-04T23:17:00.225Z,5.20
2019-03-04T23:19:49.229Z,5.10
2019-03-04T23:22:36.990Z,5.10
2019-03-04T23:25:24.817Z,5.10
2019-03-04T23:28:12.597Z,5.20
2019-03-04T23:31:00.363Z,5.20
2019-03-04T23:33:48.131Z,5.10
2019-03-04T23:36:35.903Z,5.10
2019-03-04T23:39:23.679Z,5.20
2019-03-04T23:42:11.439Z,5.20
2019-03-04T23:44:59.239Z,5.20
2019-03-04T23:47:47.079Z,5.10
2019-03-04T23:50:34.860Z,5.00
2019-03-04T23:53:22.617Z,5.00
2019-03-04T23:56:02.894Z,4.90
2019-03-04T23:58:43.647Z,4.90
